Time;durP1;ratioP1;P1;durP2;ratioP2;P2;SDS_P1;SDS_P2;PMS_P1;PMS_P2;Temp;Humidity;BMP_temperature;BMP_pressure;BME280_temperature;BME280_humidity;BME280_pressure;Samples;Min_cycle;Max_cycle;Signal;HPM_P1;HPM_P2
2022/01/12 00:00:48;;;;;;;23.25;8.27;;;3.90;99.90;;;;;;6309642;22;20418;-75
2022/01/12 00:03:14;;;;;;;22.42;8.82;;;3.90;99.90;;;;;;6309119;22;20070;-76
2022/01/12 00:05:39;;;;;;;28.88;9.13;;;3.90;99.90;;;;;;6309456;22;20093;-76
2022/01/12 00:08:05;;;;;;;26.27;8.18;;;3.90;99.90;;;;;;6309407;22;20003;-75
2022/01/12 00:10:31;;;;;;;23.55;8.50;;;3.90;99.90;;;;;;6281685;22;20019;-75
2022/01/12 00:12:57;;;;;;;28.20;9.13;;;3.90;99.90;;;;;;6309104;22;19999;-75
2022/01/12 00:15:22;;;;;;;24.05;9.00;;;3.90;99.90;;;;;;6309390;22;20010;-75
2022/01/12 00:17:48;;;;;;;28.98;9.77;;;4.00;99.90;;;;;;6309112;22;19999;-75
2022/01/12 00:20:16;;;;;;;28.02;9.70;;;4.00;99.90;;;;;;6309202;22;20013;-76
2022/01/12 00:22:42;;;;;;;30.60;9.02;;;4.00;99.90;;;;;;6281740;22;20433;-76
2022/01/12 00:25:30;;;;;;;24.63;8.82;;;4.00;99.90;;;;;;6308847;22;20033;-76
2022/01/12 00:33:24;;;;;;;25.27;10.45;;;4.00;99.90;;;;;;6308960;22;20088;-76
2022/01/12 00:35:51;;;;;;;29.27;9.98;;;4.10;99.90;;;;;;6308863;22;20003;-76
2022/01/12 00:38:19;;;;;;;31.77;10.95;;;4.10;99.90;;;;;;6309296;22;20308;-76
2022/01/12 00:40:50;;;;;;;28.13;10.45;;;4.10;99.90;;;;;;6308958;22;20443;-75
2022/01/12 00:43:17;;;;;;;26.48;9.98;;;4.10;99.90;;;;;;6308923;22;20377;-75
2022/01/12 00:45:45;;;;;;;27.23;9.88;;;4.10;99.90;;;;;;6309335;22;20000;-75
2022/01/12 00:48:12;;;;;;;26.92;9.30;;;4.10;99.90;;;;;;6281397;22;20003;-75
2022/01/12 00:50:38;;;;;;;28.70;10.15;;;4.10;99.90;;;;;;6281193;22;20002;-75
2022/01/12 00:53:04;;;;;;;28.10;9.68;;;4.10;99.90;;;;;;6281473;22;20397;-75
2022/01/12 00:55:34;;;;;;;27.10;10.88;;;4.10;99.90;;;;;;6281092;22;19999;-75
2022/01/12 00:58:04;;;;;;;25.70;9.63;;;4.10;99.90;;;;;;6308769;22;20003;-75
2022/01/12 01:00:30;;;;;;;26.02;9.88;;;4.10;99.90;;;;;;6308351;22;20018;-75
2022/01/12 01:02:56;;;;;;;33.10;10.05;;;4.10;99.90;;;;;;6281225;22;19999;-76
2022/01/12 01:05:23;;;;;;;28.48;9.73;;;4.10;99.90;;;;;;6309211;22;20006;-76
2022/01/12 01:07:50;;;;;;;27.65;9.70;;;4.10;99.90;;;;;;6308557;22;20419;-76
2022/01/12 01:10:28;;;;;;;29.00;10.80;;;4.10;99.90;;;;;;6308372;22;20343;-76
2022/01/12 01:12:54;;;;;;;31.17;10.68;;;4.00;99.90;;;;;;6309213;22;20315;-76
2022/01/12 01:15:28;;;;;;;28.40;10.13;;;4.10;99.90;;;;;;6280960;22;20000;-76
2022/01/12 01:26:05;;;;;;;29.02;10.40;;;4.10;99.90;;;;;;6308158;22;20032;-76
2022/01/12 01:28:31;;;;;;;26.20;9.35;;;4.10;99.90;;;;;;6308779;22;20030;-75
2022/01/12 01:30:56;;;;;;;26.15;10.30;;;4.10;99.90;;;;;;6308588;22;20053;-76
2022/01/12 01:33:22;;;;;;;32.85;9.90;;;4.20;99.90;;;;;;6308107;22;20014;-75
2022/01/12 01:35:54;;;;;;;26.83;9.75;;;4.20;99.90;;;;;;6308893;22;19999;-75
2022/01/12 01:38:19;;;;;;;25.85;10.07;;;4.20;99.90;;;;;;6308055;22;19999;-75
2022/01/12 01:40:46;;;;;;;24.95;10.35;;;4.20;99.90;;;;;;6280786;22;20334;-76
2022/01/12 01:43:25;;;;;;;26.42;10.07;;;4.20;99.90;;;;;;6308387;22;20128;-76
2022/01/12 01:54:07;;;;;;;27.88;9.25;;;4.20;99.90;;;;;;6308710;22;20018;-76
2022/01/12 01:56:33;;;;;;;25.02;10.27;;;4.20;99.90;;;;;;6307975;22;20006;-76
2022/01/12 01:58:58;;;;;;;25.73;9.90;;;4.20;99.90;;;;;;6307708;22;20007;-75
2022/01/12 02:01:24;;;;;;;24.75;9.90;;;4.20;99.90;;;;;;6307903;22;19999;-75
2022/01/12 02:03:51;;;;;;;26.73;10.35;;;4.20;99.90;;;;;;6307920;22;19995;-75
2022/01/12 02:06:16;;;;;;;25.77;10.10;;;4.10;99.90;;;;;;6308181;22;20449;-76
2022/01/12 02:08:43;;;;;;;28.27;9.90;;;4.20;99.90;;;;;;6307871;22;19999;-75
2022/01/12 02:11:08;;;;;;;30.15;10.55;;;4.20;99.90;;;;;;6308079;22;20003;-76
2022/01/12 02:13:34;;;;;;;26.80;10.43;;;4.10;99.90;;;;;;6280464;22;20009;-75
2022/01/12 02:15:59;;;;;;;25.13;9.73;;;4.20;99.90;;;;;;6308054;22;20437;-75
2022/01/12 02:39:46;;;;;;;24.58;9.85;;;4.20;99.90;;;;;;6307285;22;20030;-76
2022/01/12 02:39:57;;;;;;;25.45;10.23;;;4.20;99.90;;;;;;6305228;22;20003;-76
2022/01/12 02:42:25;;;;;;;25.95;9.18;;;4.20;99.90;;;;;;6307861;22;20358;-75
2022/01/12 02:50:44;;;;;;;27.63;10.23;;;4.30;99.90;;;;;;6307640;22;20090;-76
2022/01/12 02:55:55;;;;;;;28.85;10.70;;;4.30;99.90;;;;;;6308415;22;20338;-76
2022/01/12 02:58:20;;;;;;;24.80;10.55;;;4.30;99.90;;;;;;6280009;22;20039;-76
2022/01/12 03:03:24;;;;;;;28.83;10.15;;;4.30;99.90;;;;;;6318967;22;20038;-76
2022/01/12 03:06:02;;;;;;;27.80;10.35;;;4.30;99.90;;;;;;6280073;22;20355;-76
2022/01/12 03:08:36;;;;;;;26.97;10.53;;;4.30;99.90;;;;;;6280327;22;20048;-76
2022/01/12 03:11:02;;;;;;;31.17;11.32;;;4.30;99.90;;;;;;6280085;22;20351;-76
2022/01/12 03:13:27;;;;;;;28.48;11.05;;;4.30;99.90;;;;;;6307754;22;20081;-76
2022/01/12 03:15:53;;;;;;;28.45;11.18;;;4.30;99.90;;;;;;6280321;22;20026;-75
2022/01/12 03:18:19;;;;;;;30.23;11.50;;;4.30;99.90;;;;;;6280073;22;20007;-76
2022/01/12 03:20:45;;;;;;;29.42;10.43;;;4.30;99.90;;;;;;6280167;22;19995;-76
2022/01/12 03:23:13;;;;;;;28.67;11.20;;;4.30;99.90;;;;;;6307549;22;20212;-75
2022/01/12 03:25:39;;;;;;;29.08;11.18;;;4.30;99.90;;;;;;6280068;22;20057;-75
2022/01/12 03:28:07;;;;;;;32.88;11.50;;;4.30;99.90;;;;;;6307569;22;20003;-75
2022/01/12 03:30:52;;;;;;;36.33;12.40;;;4.30;99.90;;;;;;6280078;22;20007;-75
2022/01/12 03:33:36;;;;;;;34.22;12.07;;;4.30;99.90;;;;;;6307522;22;20330;-75
2022/01/12 03:36:26;;;;;;;35.75;11.70;;;4.30;99.90;;;;;;6307673;22;20006;-76
2022/01/12 03:38:48;;;;;;;34.70;12.00;;;4.30;99.90;;;;;;6306353;22;20011;-75
2022/01/12 03:41:13;;;;;;;33.83;12.73;;;4.30;99.90;;;;;;6307549;22;19995;-75
2022/01/12 03:43:39;;;;;;;32.22;11.50;;;4.40;99.90;;;;;;6307468;22;20006;-76
2022/01/12 03:46:05;;;;;;;32.58;12.25;;;4.40;99.90;;;;;;6307406;22;20308;-76
2022/01/12 03:48:31;;;;;;;36.28;12.02;;;4.40;99.90;;;;;;6280887;22;20004;-75
2022/01/12 03:50:59;;;;;;;35.90;12.40;;;4.40;99.90;;;;;;6309153;22;20304;-76
2022/01/12 03:53:24;;;;;;;40.70;13.25;;;4.40;99.90;;;;;;6309023;22;20007;-76
2022/01/12 03:55:51;;;;;;;34.53;12.40;;;4.40;99.90;;;;;;6309057;22;20003;-76
2022/01/12 03:58:16;;;;;;;35.70;11.98;;;4.40;99.90;;;;;;6308866;22;20015;-76
2022/01/12 04:00:42;;;;;;;37.72;12.63;;;4.40;99.90;;;;;;6309648;22;19999;-76
2022/01/12 04:03:08;;;;;;;39.08;12.98;;;4.40;99.90;;;;;;6309217;22;20048;-76
2022/01/12 04:08:20;;;;;;;32.55;11.75;;;4.30;99.90;;;;;;6310402;22;20018;-76
2022/01/12 04:10:53;;;;;;;40.50;12.80;;;4.40;99.90;;;;;;6308889;22;20084;-76
2022/01/12 04:13:22;;;;;;;37.80;12.27;;;2.40;99.90;;;;;;6309104;22;19995;-76
2022/01/12 04:15:55;;;;;;;43.40;13.57;;;4.30;99.90;;;;;;6309096;22;20041;-76
2022/01/12 04:18:21;;;;;;;53.00;13.90;;;4.30;99.90;;;;;;6308812;22;19996;-76
2022/01/12 04:20:49;;;;;;;43.33;11.70;;;4.40;99.90;;;;;;6281641;22;20003;-75
2022/01/12 04:23:17;;;;;;;41.92;12.38;;;4.40;99.90;;;;;;6309239;22;19995;-76
2022/01/12 04:25:58;;;;;;;38.63;13.50;;;4.40;99.90;;;;;;6281430;22;20007;-75
2022/01/12 04:28:26;;;;;;;38.90;13.52;;;4.40;99.90;;;;;;6308881;22;19995;-76
2022/01/12 04:30:54;;;;;;;36.58;12.07;;;4.40;99.90;;;;;;6281449;22;20003;-76
2022/01/12 04:33:20;;;;;;;42.70;14.77;;;4.30;99.90;;;;;;6308771;22;19999;-76
2022/01/12 04:35:50;;;;;;;41.97;12.95;;;4.30;99.90;;;;;;6308910;22;20017;-76
2022/01/12 04:38:17;;;;;;;48.28;12.02;;;4.40;99.90;;;;;;6281217;22;20419;-76
2022/01/12 04:40:43;;;;;;;53.70;13.45;;;4.30;99.90;;;;;;6281137;22;20045;-76
2022/01/12 04:43:09;;;;;;;50.10;12.98;;;4.30;99.90;;;;;;6308574;22;19999;-76
2022/01/12 04:45:45;;;;;;;46.42;13.85;;;4.40;99.90;;;;;;6281374;22;20397;-76
2022/01/12 04:50:44;;;;;;;51.65;14.02;;;4.40;99.90;;;;;;6313351;22;20007;-76
2022/01/12 04:53:12;;;;;;;54.78;13.02;;;4.40;99.90;;;;;;6282671;22;20034;-76
2022/01/12 04:55:38;;;;;;;50.25;14.65;;;4.40;99.90;;;;;;6308384;22;20069;-76
2022/01/12 04:58:05;;;;;;;60.42;13.27;;;4.40;99.90;;;;;;6308309;22;20506;-76
2022/01/12 05:00:32;;;;;;;55.50;14.05;;;4.40;99.90;;;;;;6280446;22;20085;-76
2022/01/12 05:13:43;;;;;;;49.30;13.57;;;4.30;99.90;;;;;;6309056;22;20391;-75
2022/01/12 05:16:12;;;;;;;69.40;12.60;;;4.30;99.90;;;;;;6281099;22;20342;-76
2022/01/12 05:18:38;;;;;;;;;;;4.30;99.90;;;;;;6281341;22;19999;-75
2022/01/12 05:21:04;;;;;;;52.50;13.45;;;4.30;99.90;;;;;;6308479;22;20314;-75
2022/01/12 05:23:30;;;;;;;57.75;13.30;;;4.30;99.90;;;;;;6280966;22;19999;-75
2022/01/12 05:25:56;;;;;;;75.18;14.38;;;4.20;99.90;;;;;;6308141;22;20048;-75
2022/01/12 05:28:23;;;;;;;53.35;14.80;;;4.20;99.90;;;;;;6280997;22;20031;-75
2022/01/12 05:30:52;;;;;;;59.05;13.63;;;4.20;99.90;;;;;;6280833;22;20021;-75
2022/01/12 05:33:19;;;;;;;107.28;14.32;;;4.20;99.90;;;;;;6308396;22;19995;-76
2022/01/12 05:35:45;;;;;;;56.50;14.10;;;4.20;99.90;;;;;;6308081;22;20371;-75
2022/01/12 05:38:14;;;;;;;72.88;12.15;;;4.20;99.90;;;;;;6308744;22;19999;-75
2022/01/12 05:40:41;;;;;;;123.07;15.25;;;4.20;99.90;;;;;;6308250;22;20007;-76
2022/01/12 05:43:07;;;;;;;67.20;13.30;;;4.20;99.90;;;;;;6308081;22;19999;-76
2022/01/12 05:45:37;;;;;;;129.40;14.73;;;4.20;99.90;;;;;;6307959;22;19999;-75
2022/01/12 05:50:36;;;;;;;99.07;13.38;;;4.20;99.90;;;;;;6313516;22;20011;-75
2022/01/12 05:53:02;;;;;;;85.45;13.27;;;4.30;99.90;;;;;;6280624;22;20512;-75
2022/01/12 05:55:27;;;;;;;75.50;12.60;;;4.20;99.90;;;;;;6307958;22;19999;-75
2022/01/12 05:57:53;;;;;;;63.88;12.43;;;4.20;99.90;;;;;;6307736;22;20011;-75
2022/01/12 06:00:21;;;;;;;65.50;11.73;;;4.20;99.90;;;;;;6308298;22;19999;-75
2022/01/12 06:02:47;;;;;;;109.75;13.07;;;4.20;99.90;;;;;;6307911;22;20457;-75
2022/01/12 06:05:18;;;;;;;78.18;12.65;;;4.20;99.90;;;;;;6308558;22;19996;-75
2022/01/12 06:07:45;;;;;;;121.70;13.93;;;4.20;99.90;;;;;;6307813;22;19999;-75
2022/01/12 06:10:11;;;;;;;79.20;13.93;;;4.10;99.90;;;;;;6307740;22;20009;-76
2022/01/12 06:12:37;;;;;;;91.82;12.57;;;4.10;99.90;;;;;;6280368;22;20003;-75
2022/01/12 06:15:03;;;;;;;93.60;12.57;;;4.10;99.90;;;;;;6307830;22;20429;-76
2022/01/12 06:17:28;;;;;;;117.43;12.73;;;4.20;99.90;;;;;;6307850;22;20007;-76
2022/01/12 06:19:54;;;;;;;71.28;12.25;;;4.20;99.90;;;;;;6281069;22;20011;-76
2022/01/12 06:22:19;;;;;;;101.45;12.63;;;4.20;99.90;;;;;;6308170;22;20327;-76
2022/01/12 06:24:45;;;;;;;109.18;12.43;;;4.20;99.90;;;;;;6280486;22;20003;-75
2022/01/12 06:27:14;;;;;;;189.15;12.85;;;4.20;99.90;;;;;;6307726;22;20002;-75
2022/01/12 06:30:02;;;;;;;72.88;13.23;;;4.20;99.90;;;;;;6307685;22;20006;-74
2022/01/12 06:32:28;;;;;;;89.72;11.07;;;4.20;99.90;;;;;;6280425;22;20026;-74
2022/01/12 06:34:53;;;;;;;139.02;13.27;;;4.20;99.90;;;;;;6307724;22;20038;-74
2022/01/12 06:37:19;;;;;;;70.18;11.35;;;4.20;99.90;;;;;;6280584;22;20007;-74
2022/01/12 06:39:45;;;;;;;139.15;12.00;;;4.20;99.90;;;;;;6307838;22;20488;-74
2022/01/12 06:42:10;;;;;;;61.60;11.20;;;4.20;99.90;;;;;;6307754;22;20035;-74
2022/01/12 06:44:36;;;;;;;40.53;10.82;;;4.20;99.90;;;;;;6280336;22;19999;-73
2022/01/12 06:47:03;;;;;;;39.13;9.43;;;4.20;99.90;;;;;;6280663;22;20026;-74
2022/01/12 06:49:29;;;;;;;38.42;10.65;;;4.20;99.90;;;;;;6280247;22;20052;-74
2022/01/12 06:51:55;;;;;;;52.53;9.98;;;4.20;99.90;;;;;;6307670;22;19999;-74
2022/01/12 06:54:21;;;;;;;34.08;8.73;;;4.20;99.90;;;;;;6308399;22;19996;-74
2022/01/12 06:56:46;;;;;;;29.70;10.18;;;4.20;99.90;;;;;;6280271;22;20007;-74
2022/01/12 06:59:12;;;;;;;27.60;9.90;;;4.20;99.90;;;;;;6280283;22;20041;-76
2022/01/12 07:01:38;;;;;;;29.30;9.68;;;4.20;99.90;;;;;;6308248;22;20007;-75
2022/01/12 07:04:04;;;;;;;44.00;10.13;;;4.20;99.90;;;;;;6307727;22;20034;-74
2022/01/12 07:06:29;;;;;;;33.05;10.45;;;4.20;99.90;;;;;;6307269;22;19995;-74
2022/01/12 07:08:55;;;;;;;29.55;9.93;;;4.20;99.90;;;;;;6307406;22;20004;-74
2022/01/12 07:11:21;;;;;;;29.65;8.48;;;4.20;99.90;;;;;;6280030;22;20087;-75
2022/01/12 07:13:47;;;;;;;30.30;9.25;;;4.20;99.90;;;;;;6280077;22;20026;-74
2022/01/12 07:16:12;;;;;;;31.73;8.65;;;4.20;99.90;;;;;;6280155;22;19999;-75
2022/01/12 07:18:38;;;;;;;28.63;9.40;;;4.30;99.90;;;;;;6307469;22;20026;-75
2022/01/12 07:21:04;;;;;;;31.90;8.50;;;4.30;99.90;;;;;;6307330;22;20070;-75
2022/01/12 07:23:29;;;;;;;32.92;9.20;;;4.30;99.90;;;;;;6308544;22;20073;-75
2022/01/12 07:25:55;;;;;;;26.40;8.32;;;4.30;99.90;;;;;;6309759;22;19999;-75
2022/01/12 07:28:22;;;;;;;36.38;10.98;;;4.30;99.90;;;;;;6309448;22;20480;-75
2022/01/12 07:30:48;;;;;;;28.77;8.43;;;4.40;99.90;;;;;;6282347;22;19995;-75
2022/01/12 07:33:15;;;;;;;37.42;9.38;;;4.30;99.90;;;;;;6281780;22;20426;-75
2022/01/12 07:35:42;;;;;;;29.20;8.73;;;4.30;99.90;;;;;;6282004;22;20002;-75
2022/01/12 07:38:08;;;;;;;31.20;9.10;;;4.30;99.90;;;;;;6309434;22;19999;-75
2022/01/12 07:40:35;;;;;;;34.47;8.48;;;4.40;99.90;;;;;;6281776;22;20030;-75
2022/01/12 07:43:07;;;;;;;32.40;8.25;;;4.40;99.90;;;;;;6309411;22;19995;-75
2022/01/12 07:45:34;;;;;;;33.83;8.82;;;4.40;99.90;;;;;;6281944;22;20003;-74
2022/01/12 07:48:00;;;;;;;37.75;8.95;;;4.40;99.90;;;;;;6309612;22;20076;-74
2022/01/12 07:50:26;;;;;;;38.83;9.15;;;4.40;99.90;;;;;;6309473;22;20430;-74
2022/01/12 07:52:53;;;;;;;36.03;8.55;;;4.40;99.90;;;;;;6309456;22;20007;-74
2022/01/12 07:55:20;;;;;;;31.38;7.97;;;4.40;99.90;;;;;;6309168;22;20006;-74
2022/01/12 07:57:47;;;;;;;66.00;7.65;;;4.40;99.90;;;;;;6281616;22;20060;-74
2022/01/12 08:00:13;;;;;;;72.40;8.20;;;4.50;99.90;;;;;;6281643;22;19999;-74
2022/01/12 08:02:39;;;;;;;26.52;6.30;;;4.50;99.90;;;;;;6308955;22;20438;-74
2022/01/12 08:05:05;;;;;;;27.88;7.03;;;4.50;99.90;;;;;;6309416;22;20025;-74
2022/01/12 08:07:35;;;;;;;26.15;6.40;;;4.50;99.90;;;;;;6310043;22;19999;-74
2022/01/12 08:10:05;;;;;;;29.33;6.60;;;4.50;99.90;;;;;;6281459;22;19999;-74
2022/01/12 08:12:30;;;;;;;40.65;7.05;;;4.50;99.90;;;;;;6281640;22;19999;-74
2022/01/12 08:14:56;;;;;;;45.10;8.45;;;4.50;99.90;;;;;;6309117;22;20003;-74
2022/01/12 08:17:22;;;;;;;32.22;7.30;;;4.50;99.90;;;;;;6309011;22;20477;-74
2022/01/12 08:19:47;;;;;;;32.20;5.32;;;4.50;99.90;;;;;;6309575;22;20006;-74
2022/01/12 08:22:13;;;;;;;32.72;6.50;;;4.50;99.90;;;;;;6281647;22;20023;-74
2022/01/12 08:24:39;;;;;;;30.17;6.28;;;4.50;99.90;;;;;;6308962;22;20057;-74
2022/01/12 08:27:05;;;;;;;25.90;6.40;;;4.50;99.90;;;;;;6309121;22;20022;-74
2022/01/12 08:29:31;;;;;;;25.58;5.63;;;4.50;99.90;;;;;;6308655;22;20008;-74
2022/01/12 08:31:56;;;;;;;21.75;5.25;;;4.50;99.90;;;;;;6308945;22;20431;-74
2022/01/12 08:34:22;;;;;;;22.73;5.50;;;4.60;99.90;;;;;;6281480;22;20010;-74
2022/01/12 08:36:48;;;;;;;21.23;6.03;;;4.60;99.90;;;;;;6308773;22;20049;-74
2022/01/12 08:39:14;;;;;;;25.75;5.20;;;4.50;99.90;;;;;;6281551;22;20003;-74
2022/01/12 08:41:39;;;;;;;21.85;5.82;;;4.60;99.90;;;;;;6308589;22;20007;-74
2022/01/12 08:44:06;;;;;;;22.13;5.97;;;4.60;99.90;;;;;;6309191;22;19999;-74
2022/01/12 08:46:32;;;;;;;27.90;5.60;;;4.60;99.90;;;;;;6308920;22;20003;-74
2022/01/12 08:48:58;;;;;;;26.35;6.38;;;4.60;99.90;;;;;;6282049;22;20492;-77
2022/01/12 08:51:23;;;;;;;19.30;4.75;;;4.60;99.90;;;;;;6281298;22;20442;-77
2022/01/12 08:53:49;;;;;;;22.13;5.22;;;4.60;99.90;;;;;;6281589;22;20010;-77
2022/01/12 08:56:14;;;;;;;20.95;4.82;;;4.60;99.90;;;;;;6308999;22;20006;-77
2022/01/12 08:58:41;;;;;;;21.10;4.32;;;4.60;99.90;;;;;;6281570;22;20019;-77
2022/01/12 09:01:09;;;;;;;18.90;5.30;;;4.70;99.90;;;;;;6281194;22;19995;-77
2022/01/12 09:03:35;;;;;;;21.45;5.60;;;4.70;99.90;;;;;;6281476;22;19996;-77
2022/01/12 09:06:03;;;;;;;20.88;5.65;;;4.70;99.90;;;;;;6281178;22;20002;-76
2022/01/12 09:08:29;;;;;;;22.83;5.30;;;4.80;99.90;;;;;;6308583;22;19996;-77
2022/01/12 09:10:55;;;;;;;24.88;5.25;;;4.70;99.90;;;;;;6281301;22;19999;-77
2022/01/12 09:13:20;;;;;;;22.80;5.15;;;4.70;99.90;;;;;;6281363;22;20000;-77
2022/01/12 09:15:46;;;;;;;21.42;4.97;;;4.80;99.90;;;;;;6281529;22;20029;-77
2022/01/12 09:18:12;;;;;;;23.20;5.93;;;4.80;99.90;;;;;;6308961;22;20369;-77
2022/01/12 09:20:37;;;;;;;20.52;4.80;;;4.80;99.90;;;;;;6308784;22;20078;-77
2022/01/12 09:23:04;;;;;;;20.48;4.22;;;4.80;99.90;;;;;;6308589;22;20438;-77
2022/01/12 09:25:33;;;;;;;22.75;5.47;;;4.90;99.90;;;;;;6281402;22;20022;-77
2022/01/12 09:28:02;;;;;;;22.73;5.88;;;4.80;99.90;;;;;;6308895;22;20101;-77
2022/01/12 09:30:28;;;;;;;19.25;5.43;;;4.90;99.90;;;;;;6281006;22;20350;-77
2022/01/12 09:32:54;;;;;;;17.52;4.07;;;4.90;99.90;;;;;;6280954;22;20430;-77
2022/01/12 09:35:19;;;;;;;19.85;5.03;;;4.90;99.90;;;;;;6309174;22;20049;-77
2022/01/12 09:37:48;;;;;;;21.83;4.78;;;4.80;99.90;;;;;;6308507;22;20022;-77
2022/01/12 09:40:14;;;;;;;14.38;4.55;;;4.90;99.90;;;;;;6281106;22;20049;-77
2022/01/12 09:42:44;;;;;;;15.88;4.60;;;5.00;99.90;;;;;;6308747;22;20022;-77
2022/01/12 09:45:14;;;;;;;19.98;3.90;;;5.00;99.90;;;;;;6281181;22;20078;-77
2022/01/12 09:47:40;;;;;;;20.70;4.47;;;5.10;99.90;;;;;;6281005;22;20007;-77
2022/01/12 09:50:06;;;;;;;21.13;4.47;;;5.10;99.90;;;;;;6308042;22;20003;-77
2022/01/12 09:52:32;;;;;;;15.98;3.83;;;5.10;99.90;;;;;;6281903;22;20368;-77
2022/01/12 09:54:58;;;;;;;20.35;4.10;;;5.10;99.90;;;;;;6280900;22;20043;-77
2022/01/12 09:57:23;;;;;;;17.55;3.88;;;5.10;99.90;;;;;;6281013;22;20384;-77
2022/01/12 09:59:49;;;;;;;16.20;3.72;;;5.20;99.90;;;;;;6308101;22;20007;-77
2022/01/12 10:02:20;;;;;;;17.58;3.88;;;5.20;99.90;;;;;;6308954;22;20051;-77
2022/01/12 10:04:45;;;;;;;16.42;3.65;;;5.30;99.90;;;;;;6280610;22;20006;-77
2022/01/12 10:07:13;;;;;;;20.10;4.65;;;5.40;99.90;;;;;;6307950;22;20095;-77
2022/01/12 10:09:40;;;;;;;16.13;4.40;;;5.40;99.90;;;;;;6308093;22;20014;-77
2022/01/12 10:12:17;;;;;;;17.40;4.00;;;5.50;99.90;;;;;;6308140;22;20335;-77
2022/01/12 10:14:46;;;;;;;19.85;4.88;;;5.50;99.90;;;;;;6308282;22;20335;-77
2022/01/12 10:17:13;;;;;;;21.17;5.03;;;5.60;99.90;;;;;;6308349;22;20007;-77
2022/01/12 10:19:40;;;;;;;19.42;5.05;;;5.70;99.90;;;;;;6280422;22;20132;-77
2022/01/12 10:22:10;;;;;;;18.33;4.00;;;5.80;99.90;;;;;;6308051;22;19995;-77
2022/01/12 10:24:38;;;;;;;17.73;3.33;;;5.90;99.90;;;;;;6308167;22;19999;-77
2022/01/12 10:27:17;;;;;;;12.85;3.47;;;6.10;99.90;;;;;;6280557;22;20504;-77
2022/01/12 10:29:44;;;;;;;17.58;3.47;;;6.20;99.90;;;;;;6280720;22;20007;-77
2022/01/12 10:32:17;;;;;;;19.15;3.47;;;6.10;99.90;;;;;;6280529;22;20007;-77
2022/01/12 10:34:46;;;;;;;21.50;4.45;;;6.00;99.90;;;;;;6280598;22;20003;-77
2022/01/12 10:37:14;;;;;;;18.92;4.50;;;5.90;99.90;;;;;;6308197;22;20007;-77
2022/01/12 10:39:46;;;;;;;15.02;3.47;;;5.90;99.90;;;;;;6280270;22;20338;-77
2022/01/12 10:42:13;;;;;;;15.80;4.00;;;5.80;99.90;;;;;;6307766;22;20011;-77
2022/01/12 10:44:43;;;;;;;15.80;3.50;;;5.80;99.90;;;;;;6307982;22;20049;-77
2022/01/12 10:47:16;;;;;;;17.20;3.60;;;5.80;99.90;;;;;;6280634;22;20003;-77
2022/01/12 10:49:59;;;;;;;18.42;3.55;;;5.90;99.90;;;;;;6308026;22;20015;-77
2022/01/12 10:52:38;;;;;;;17.00;3.45;;;6.00;99.90;;;;;;6280143;22;19996;-77
2022/01/12 10:55:10;;;;;;;11.45;3.47;;;6.10;99.90;;;;;;6280366;22;20381;-77
2022/01/12 10:57:40;;;;;;;13.80;3.53;;;6.10;99.90;;;;;;6307713;22;20453;-77
2022/01/12 11:00:21;;;;;;;11.52;2.90;;;6.10;99.90;;;;;;6282282;22;20385;-77
2022/01/12 11:02:52;;;;;;;14.88;3.42;;;6.10;99.90;;;;;;6309939;22;19999;-77
2022/01/12 11:05:20;;;;;;;14.27;3.75;;;6.00;99.90;;;;;;6310067;22;20006;-77
2022/01/12 11:07:46;;;;;;;17.50;4.05;;;6.10;99.90;;;;;;6310087;22;20000;-77
2022/01/12 11:10:12;;;;;;;11.30;3.28;;;6.20;99.90;;;;;;6309596;22;20029;-76
2022/01/12 11:12:39;;;;;;;12.85;3.17;;;6.20;99.90;;;;;;6282659;22;20006;-76
2022/01/12 11:15:07;;;;;;;17.85;4.00;;;6.30;99.90;;;;;;6309879;22;20438;-77
2022/01/12 11:17:33;;;;;;;20.75;4.85;;;6.40;99.90;;;;;;6309578;22;20083;-77
2022/01/12 11:20:24;;;;;;;15.85;3.35;;;6.40;99.90;;;;;;6282179;22;19999;-77
2022/01/12 11:22:56;;;;;;;15.48;3.40;;;6.50;99.90;;;;;;6309681;22;20069;-77
2022/01/12 11:25:23;;;;;;;17.70;4.82;;;6.40;99.90;;;;;;6282557;22;20003;-77
2022/01/12 11:28:23;;;;;;;11.18;2.53;;;6.50;99.90;;;;;;6309831;22;19996;-77
2022/01/12 11:30:51;;;;;;;10.88;2.75;;;6.40;99.90;;;;;;6309063;22;19999;-77
2022/01/12 11:33:19;;;;;;;13.57;2.90;;;6.50;99.90;;;;;;6309726;22;19996;-77
2022/01/12 11:35:47;;;;;;;13.35;4.00;;;6.40;99.90;;;;;;6310064;22;19995;-77
2022/01/12 11:38:28;;;;;;;18.00;3.28;;;6.50;99.90;;;;;;6310444;22;19995;-77
2022/01/12 11:40:56;;;;;;;17.70;4.32;;;6.60;99.90;;;;;;6281946;22;20026;-77
2022/01/12 11:43:27;;;;;;;15.07;4.38;;;6.70;99.90;;;;;;6282333;22;20007;-77
2022/01/12 11:46:06;;;;;;;16.10;4.47;;;6.80;99.90;;;;;;6309718;22;19995;-77
2022/01/12 11:48:42;;;;;;;13.48;3.65;;;6.80;99.90;;;;;;6310010;22;20019;-77
2022/01/12 11:51:08;;;;;;;12.38;3.35;;;6.70;99.90;;;;;;6282184;22;20002;-77
2022/01/12 11:53:55;;;;;;;19.70;4.25;;;6.70;99.90;;;;;;6309479;22;19999;-77
2022/01/12 11:56:24;;;;;;;20.67;5.20;;;6.60;99.90;;;;;;6310047;22;20006;-77
2022/01/12 11:58:54;;;;;;;17.85;4.60;;;6.60;99.90;;;;;;6282017;22;20335;-77
2022/01/12 12:01:22;;;;;;;16.30;4.72;;;6.60;99.90;;;;;;6281930;22;20124;-77
2022/01/12 12:04:06;;;;;;;18.50;5.22;;;6.60;99.90;;;;;;6309754;22;20048;-77
2022/01/12 12:06:33;;;;;;;18.02;4.60;;;6.60;99.90;;;;;;6309289;22;20026;-77
2022/01/12 12:09:15;;;;;;;14.98;4.57;;;6.70;99.90;;;;;;6309153;22;20033;-77
2022/01/12 12:11:48;;;;;;;19.45;5.78;;;6.70;99.90;;;;;;6282056;22;20078;-77
2022/01/12 12:14:16;;;;;;;16.90;5.20;;;6.70;99.90;;;;;;6309282;22;20003;-77
2022/01/12 12:16:42;;;;;;;19.90;5.05;;;6.60;99.90;;;;;;6281826;22;20076;-77
2022/01/12 12:19:08;;;;;;;18.15;5.15;;;7.20;99.90;;;;;;6281811;22;20031;-76
2022/01/12 12:21:33;;;;;;;24.52;6.00;;;6.80;99.90;;;;;;6282771;22;20050;-77
2022/01/12 12:24:13;;;;;;;21.33;6.00;;;6.80;99.90;;;;;;6281862;22;20006;-77
2022/01/12 12:26:48;;;;;;;18.20;4.40;;;6.90;99.90;;;;;;6309533;22;19999;-77
2022/01/12 12:29:15;;;;;;;19.65;5.80;;;6.90;99.90;;;;;;6309132;22;20052;-77
2022/01/12 12:31:46;;;;;;;22.48;5.60;;;7.00;99.90;;;;;;6281779;22;20007;-77
2022/01/12 12:34:12;;;;;;;17.60;5.10;;;6.80;99.90;;;;;;6281798;22;20003;-77
2022/01/12 12:36:38;;;;;;;20.90;4.68;;;6.80;99.90;;;;;;6309521;22;19999;-77
2022/01/12 12:39:13;;;;;;;17.67;5.10;;;6.80;99.90;;;;;;6281529;22;20078;-77
2022/01/12 12:41:43;;;;;;;17.50;4.82;;;6.80;99.90;;;;;;6309228;22;20337;-77
2022/01/12 12:44:25;;;;;;;20.10;5.40;;;6.80;99.90;;;;;;6308874;22;19999;-77
2022/01/12 12:46:51;;;;;;;18.38;4.22;;;6.80;99.90;;;;;;6281822;22;20003;-77
2022/01/12 12:49:18;;;;;;;19.10;4.90;;;6.80;99.90;;;;;;6308844;22;20000;-77
2022/01/12 12:51:44;;;;;;;16.42;4.93;;;6.70;99.90;;;;;;6281409;22;20377;-77
2022/01/12 12:54:12;;;;;;;27.15;5.18;;;6.80;99.90;;;;;;6281493;22;19999;-77
2022/01/12 12:56:49;;;;;;;17.27;5.63;;;6.80;99.90;;;;;;6281544;22;19999;-77
2022/01/12 12:59:15;;;;;;;18.38;5.72;;;6.80;99.90;;;;;;6308518;22;20014;-77
2022/01/12 13:01:40;;;;;;;29.20;8.85;;;6.80;99.90;;;;;;6308726;22;20373;-77
2022/01/12 13:04:06;;;;;;;23.75;7.47;;;6.80;99.90;;;;;;6309308;22;20311;-77
2022/01/12 13:06:35;;;;;;;18.67;6.47;;;6.70;99.90;;;;;;6308906;22;20427;-77
2022/01/12 13:09:20;;;;;;;24.73;7.95;;;6.70;99.90;;;;;;6281607;22;20003;-77
2022/01/12 13:11:46;;;;;;;20.35;6.80;;;6.60;99.90;;;;;;6281278;22;20014;-77
2022/01/12 13:14:14;;;;;;;25.52;6.70;;;6.60;99.90;;;;;;6281254;22;20009;-77
2022/01/12 13:16:49;;;;;;;21.75;7.22;;;6.50;99.90;;;;;;6281240;22;20060;-77
2022/01/12 13:19:22;;;;;;;24.30;7.95;;;6.40;99.90;;;;;;6281082;22;19999;-77
2022/01/12 13:21:49;;;;;;;25.33;7.18;;;6.30;99.90;;;;;;6280615;22;20003;-77
2022/01/12 13:24:15;;;;;;;30.80;7.55;;;6.30;99.90;;;;;;6308267;22;20132;-77
2022/01/12 13:26:43;;;;;;;32.90;7.55;;;6.30;99.90;;;;;;6308435;22;19995;-77
2022/01/12 13:29:13;;;;;;;25.92;7.53;;;6.30;99.90;;;;;;6281868;22;20010;-77
2022/01/12 13:31:39;;;;;;;25.42;7.57;;;6.20;99.90;;;;;;6308970;22;20013;-77
2022/01/12 13:34:12;;;;;;;30.95;6.38;;;6.20;99.90;;;;;;6308314;22;19999;-76
2022/01/12 13:36:38;;;;;;;22.75;7.18;;;6.20;99.90;;;;;;6281427;22;20003;-77
2022/01/12 13:39:07;;;;;;;31.20;7.68;;;6.20;99.90;;;;;;6280950;22;20427;-77
2022/01/12 13:41:35;;;;;;;27.02;8.43;;;6.10;99.90;;;;;;6309664;22;20049;-77
2022/01/12 13:44:08;;;;;;;24.70;7.93;;;6.10;99.90;;;;;;6308201;22;20000;-77
2022/01/12 13:46:37;;;;;;;30.25;7.90;;;6.20;99.90;;;;;;6281669;22;20026;-77
2022/01/12 13:51:37;;;;;;;24.50;6.40;;;6.20;99.90;;;;;;6308483;22;20014;-77
2022/01/12 13:54:05;;;;;;;25.30;7.63;;;6.20;99.90;;;;;;6308401;22;20026;-77
2022/01/12 13:56:42;;;;;;;25.38;7.35;;;6.30;99.90;;;;;;6281146;22;20003;-77
2022/01/12 13:59:09;;;;;;;24.23;5.88;;;6.20;99.90;;;;;;6306945;22;20003;-76
2022/01/12 14:01:37;;;;;;;19.85;6.28;;;6.20;99.90;;;;;;6306916;22;20082;-77